Time;durP1;ratioP1;P1;durP2;ratioP2;P2;SDS_P1;SDS_P2;PMS_P1;PMS_P2;Temp;Humidity;BMP_temperature;BMP_pressure;BME280_temperature;BME280_humidity;BME280_pressure;Samples;Min_cycle;Max_cycle;Signal;HPM_P1;HPM_P2
2021/12/29 05:47:19;;;;;;;1.30;1.20;;;;;;;20.19;12.40;99875.84;5091402;27;20374;-74
2021/12/29 05:49:44;;;;;;;1.30;1.20;;;;;;;20.68;12.13;99872.81;5091536;28;20037;-74
2021/12/29 05:52:10;;;;;;;1.23;1.10;;;;;;;21.12;11.80;99872.31;5090834;28;20028;-75
2021/12/29 05:54:36;;;;;;;1.23;1.13;;;;;;;21.47;11.47;99868.03;5090967;28;20351;-75
2021/12/29 06:16:27;;;;;;;1.50;1.40;;;;;;;20.70;12.18;99859.78;5071361;28;20502;-74
2021/12/29 06:18:53;;;;;;;1.30;1.20;;;;;;;21.16;11.81;99861.72;5070875;28;20534;-75
2021/12/29 06:21:18;;;;;;;1.65;1.35;;;;;;;21.56;11.67;99869.09;5069484;28;20025;-74
2021/12/29 06:23:44;;;;;;;1.58;1.13;;;;;;;21.86;11.42;99870.16;5071568;28;20020;-74
2021/12/29 06:26:10;;;;;;;1.70;1.33;;;;;;;22.09;11.22;99859.75;5069716;28;20033;-75
2021/12/29 06:28:35;;;;;;;1.25;1.10;;;;;;;22.26;11.15;99865.66;5071442;28;20032;-75
2021/12/29 06:31:01;;;;;;;1.70;1.50;;;;;;;22.41;11.20;99869.47;5071021;28;20498;-75
2021/12/29 06:33:26;;;;;;;1.55;1.20;;;;;;;22.50;11.07;99868.59;5071172;28;20025;-74
2021/12/29 06:35:51;;;;;;;1.25;1.15;;;;;;;22.59;11.00;99868.00;5071058;28;20033;-74
2021/12/29 06:38:17;;;;;;;1.30;1.20;;;;;;;22.68;10.87;99872.59;5071765;28;20096;-75
2021/12/29 06:40:42;;;;;;;1.52;1.42;;;;;;;22.76;10.89;99878.53;5071092;28;20415;-74
2021/12/29 06:43:08;;;;;;;2.53;1.30;;;;;;;22.81;10.87;99884.78;5069993;28;20045;-74
2021/12/29 06:45:33;;;;;;;1.63;1.33;;;;;;;22.88;10.88;99890.72;5069948;28;20033;-74
2021/12/29 06:47:59;;;;;;;1.35;1.25;;;;;;;22.89;10.73;99886.09;5069887;28;20025;-74
2021/12/29 06:50:24;;;;;;;1.27;1.17;;;;;;;22.96;10.71;99892.06;5070422;28;20433;-74
2021/12/29 06:52:49;;;;;;;2.10;1.50;;;;;;;22.98;10.76;99889.03;5069844;28;20036;-73
2021/12/29 06:55:15;;;;;;;2.63;1.30;;;;;;;23.00;10.94;99887.66;5069948;28;20032;-73
2021/12/29 06:57:40;;;;;;;2.47;1.33;;;;;;;23.04;10.85;99888.72;5070206;28;20074;-73
2021/12/29 07:00:06;;;;;;;1.30;1.20;;;;;;;23.11;10.79;99888.44;5069948;28;20104;-73
2021/12/29 07:02:32;;;;;;;2.28;1.23;;;;;;;23.11;10.92;99898.50;5068472;28;20040;-74
2021/12/29 07:04:57;;;;;;;1.95;1.20;;;;;;;23.14;10.91;99896.03;5089584;28;20058;-73
2021/12/29 07:07:23;;;;;;;1.30;1.20;;;;;;;23.16;10.85;99903.94;5089873;28;20020;-73
2021/12/29 07:09:48;;;;;;;2.28;1.27;;;;;;;23.21;11.04;99903.91;5090013;28;20031;-73
2021/12/29 07:12:13;;;;;;;1.13;1.02;;;;;;;23.32;11.21;99905.47;5089714;28;20031;-74
2021/12/29 07:14:39;;;;;;;1.70;1.30;;;;;;;23.43;11.30;99906.19;5089440;28;20058;-74
2021/12/29 07:17:05;;;;;;;2.90;1.50;;;;;;;23.48;11.18;99902.63;5088757;28;20020;-74
2021/12/29 07:19:31;;;;;;;1.98;1.40;;;;;;;23.52;10.93;99909.13;5088164;28;20385;-73
2021/12/29 07:21:59;;;;;;;1.75;1.40;;;;;;;23.56;10.86;99904.72;5088425;28;20039;-74
2021/12/29 07:24:25;;;;;;;2.28;1.17;;;;;;;23.60;10.83;99903.84;5089881;28;20020;-73
2021/12/29 07:26:51;;;;;;;1.58;1.40;;;;;;;23.59;10.98;99909.59;5080806;28;20081;-73
2021/12/29 07:29:16;;;;;;;1.70;1.30;;;;;;;23.64;10.83;99906.81;5075803;28;20036;-74
2021/12/29 07:31:41;;;;;;;1.48;1.30;;;;;;;23.70;10.89;99911.16;5074643;28;20434;-74
2021/12/29 07:34:07;;;;;;;1.33;1.00;;;;;;;23.73;10.76;99910.56;5075683;28;20029;-73
2021/12/29 07:36:33;;;;;;;1.30;1.15;;;;;;;23.75;11.03;99913.81;5074864;28;20020;-73
2021/12/29 07:38:59;;;;;;;1.27;1.17;;;;;;;23.75;10.88;99907.53;5075603;28;20021;-72
2021/12/29 07:41:24;;;;;;;1.30;1.20;;;;;;;23.67;11.02;99911.72;5076033;28;20047;-73
2021/12/29 07:43:51;;;;;;;4.90;2.50;;;;;;;23.76;10.95;99915.44;5075673;28;20451;-73
2021/12/29 07:46:16;;;;;;;5.38;2.33;;;;;;;23.74;11.10;99912.19;5075227;28;20024;-72
2021/12/29 07:48:42;;;;;;;3.60;1.88;;;;;;;23.77;10.92;99913.53;5075706;28;20021;-73
2021/12/29 07:51:08;;;;;;;8.43;3.55;;;;;;;23.79;11.11;99909.41;5075203;28;20025;-74
2021/12/29 07:53:37;;;;;;;7.32;3.65;;;;;;;23.79;10.91;99917.59;5075254;28;20382;-72
2021/12/29 07:56:04;;;;;;;4.70;3.03;;;;;;;23.80;11.08;99913.78;5075753;28;20039;-73
2021/12/29 07:58:30;;;;;;;5.50;3.17;;;;;;;23.84;11.22;99913.25;5075659;28;20055;-74
2021/12/29 08:00:58;;;;;;;7.03;2.70;;;;;;;23.88;11.15;99911.56;5075481;28;20467;-74
2021/12/29 08:03:23;;;;;;;5.50;3.03;;;;;;;23.89;11.13;99907.75;5070572;28;20049;-75
2021/12/29 08:05:49;;;;;;;5.03;3.10;;;;;;;23.97;11.39;99905.19;5054989;28;20079;-75
2021/12/29 08:08:15;;;;;;;6.47;2.90;;;;;;;23.99;11.30;99902.16;5055456;28;20032;-75
2021/12/29 08:10:40;;;;;;;5.60;3.00;;;;;;;24.00;11.17;99903.78;5055010;28;20100;-74
2021/12/29 08:13:06;;;;;;;7.82;3.10;;;;;;;24.00;11.08;99895.59;5055460;28;20056;-75
2021/12/29 08:15:32;;;;;;;4.63;2.63;;;;;;;24.01;11.12;99894.50;5037321;28;20630;-75
2021/12/29 08:17:59;;;;;;;4.97;2.85;;;;;;;24.07;10.97;99885.13;5055020;28;20025;-75
2021/12/29 08:20:24;;;;;;;5.07;2.80;;;;;;;24.10;10.99;99887.28;5056518;28;20056;-75
2021/12/29 08:22:52;;;;;;;6.05;3.10;;;;;;;24.11;10.84;99888.09;5056407;28;20073;-74
2021/12/29 08:25:17;;;;;;;4.10;2.75;;;;;;;24.09;10.58;99893.03;5056037;28;20107;-75
2021/12/29 08:27:43;;;;;;;4.95;2.65;;;;;;;24.13;10.51;99894.91;5056057;28;20025;-74
2021/12/29 08:30:08;;;;;;;4.47;2.75;;;;;;;24.13;10.61;99891.38;5056083;28;20070;-76
2021/12/29 08:32:34;;;;;;;5.80;3.00;;;;;;;24.16;10.31;99893.50;5055946;28;20040;-75
2021/12/29 08:34:59;;;;;;;4.25;2.70;;;;;;;24.15;10.58;99902.81;5055011;28;20032;-76
2021/12/29 08:37:25;;;;;;;5.85;3.20;;;;;;;24.13;10.65;99897.66;5057621;28;20025;-74
2021/12/29 08:39:51;;;;;;;4.60;3.00;;;;;;;24.13;10.89;99903.09;5058482;28;20028;-75
2021/12/29 08:42:17;;;;;;;4.90;2.88;;;;;;;24.23;10.79;99896.69;5055423;28;20440;-74
2021/12/29 08:44:42;;;;;;;5.03;2.78;;;;;;;24.19;10.62;99899.19;5055062;28;20021;-74
2021/12/29 08:47:08;;;;;;;5.55;2.92;;;;;;;24.25;10.88;99889.06;5053966;28;20029;-74
2021/12/29 08:49:34;;;;;;;4.80;2.78;;;;;;;24.22;10.74;99889.63;5055358;28;20108;-75
2021/12/29 08:52:00;;;;;;;7.25;3.75;;;;;;;24.23;10.59;99885.78;5053600;28;20061;-74
2021/12/29 08:54:26;;;;;;;8.82;3.83;;;;;;;24.25;11.04;99889.06;5054906;28;20029;-74
2021/12/29 08:56:53;;;;;;;12.15;5.72;;;;;;;24.28;11.03;99887.63;5053672;28;20024;-74
2021/12/29 08:59:19;;;;;;;9.27;3.92;;;;;;;24.31;10.82;99881.59;5055497;28;20078;-75
2021/12/29 09:01:44;;;;;;;8.48;4.28;;;;;;;24.22;10.92;99889.63;5057061;28;20418;-75
2021/12/29 09:04:10;;;;;;;6.68;3.28;;;;;;;24.28;10.97;99879.44;5052134;28;20039;-74
2021/12/29 09:06:35;;;;;;;8.30;3.55;;;;;;;24.33;10.90;99882.13;5076045;28;20024;-74
2021/12/29 09:09:00;;;;;;;5.20;3.10;;;;;;;24.36;10.80;99884.28;5077101;28;20024;-74
2021/12/29 09:11:26;;;;;;;6.82;3.05;;;;;;;24.34;10.76;99887.28;5075418;28;20378;-75
2021/12/29 09:13:53;;;;;;;5.28;2.78;;;;;;;24.35;10.71;99888.94;5073900;28;20509;-74
2021/12/29 09:16:18;;;;;;;4.35;2.63;;;;;;;24.38;10.90;99877.41;5073583;28;20056;-74
2021/12/29 09:18:44;;;;;;;5.65;3.05;;;;;;;24.37;10.69;99878.53;5075330;28;20526;-74
2021/12/29 09:21:14;;;;;;;5.70;3.17;;;;;;;24.37;10.70;99881.25;5073487;28;20029;-73
2021/12/29 09:23:39;;;;;;;6.18;3.20;;;;;;;24.40;10.94;99879.03;5072493;28;20039;-74
2021/12/29 09:26:05;;;;;;;6.63;2.70;;;;;;;24.42;10.61;99872.16;5073972;28;20344;-74
2021/12/29 09:28:31;;;;;;;5.82;2.97;;;;;;;24.42;10.55;99874.88;5074900;28;20025;-74
2021/12/29 09:30:56;;;;;;;6.30;2.88;;;;;;;24.49;10.66;99882.72;5072690;28;20056;-74
2021/12/29 09:33:22;;;;;;;5.18;3.30;;;;;;;24.42;10.86;99877.63;5073572;28;20056;-74
2021/12/29 09:35:48;;;;;;;4.95;2.70;;;;;;;24.44;10.94;99880.91;5076404;28;20039;-74
2021/12/29 09:38:14;;;;;;;5.00;2.72;;;;;;;24.50;10.52;99874.25;5072764;28;20052;-73
2021/12/29 09:40:40;;;;;;;4.60;2.67;;;;;;;24.53;10.55;99873.66;5076752;28;20020;-75
2021/12/29 09:43:08;;;;;;;4.25;2.70;;;;;;;24.55;10.71;99874.22;5079045;28;20028;-73
2021/12/29 09:45:35;;;;;;;5.13;3.22;;;;;;;24.55;10.53;99876.94;5073232;28;20025;-73
2021/12/29 09:48:00;;;;;;;5.95;2.88;;;;;;;24.54;10.58;99874.50;5055414;28;20024;-74
2021/12/29 09:50:27;;;;;;;5.63;2.80;;;;;;;24.55;10.53;99876.94;5073373;28;20028;-74
2021/12/29 09:52:52;;;;;;;5.03;2.97;;;;;;;24.55;10.52;99879.69;5071966;28;20032;-74
2021/12/29 09:55:19;;;;;;;7.05;3.17;;;;;;;24.58;10.81;99891.13;5073282;28;20086;-74
2021/12/29 09:57:47;;;;;;;6.30;3.15;;;;;;;24.54;10.54;99883.53;5073835;28;20028;-73
2021/12/29 10:00:32;;;;;;;7.32;3.50;;;;;;;24.65;10.71;99883.41;5072571;28;20061;-73
2021/12/29 10:02:59;;;;;;;5.40;3.25;;;;;;;24.60;10.95;99876.06;5072135;28;20027;-74
2021/12/29 10:05:27;;;;;;;4.65;3.25;;;;;;;24.63;10.60;99877.38;5053996;28;20036;-74
2021/12/29 10:08:06;;;;;;;4.80;2.83;;;;;;;24.62;10.79;99876.59;5053509;28;20027;-74
2021/12/29 10:10:32;;;;;;;3.90;2.90;;;;;;;24.61;10.65;99880.44;5052498;28;20078;-73
2021/12/29 10:12:58;;;;;;;5.50;3.58;;;;;;;24.47;10.79;99874.81;5051707;28;20079;-73
2021/12/29 10:15:28;;;;;;;137.63;57.10;;;;;;;24.61;10.70;99879.59;5052845;28;20104;-73
2021/12/29 10:18:05;;;;;;;125.82;52.55;;;;;;;24.61;10.61;99879.59;5053408;28;20055;-74
2021/12/29 10:20:30;;;;;;;33.83;14.75;;;;;;;24.68;11.06;99880.06;5053790;28;20032;-72
2021/12/29 10:22:56;;;;;;;18.63;8.60;;;;;;;24.70;10.71;99884.13;5054258;28;20029;-74
2021/12/29 10:25:24;;;;;;;11.23;4.85;;;;;;;24.63;10.98;99877.38;5054367;28;20025;-73
2021/12/29 10:27:50;;;;;;;10.68;4.82;;;;;;;24.65;11.26;99880.66;5054245;28;20040;-74
2021/12/29 10:30:23;;;;;;;8.10;3.80;;;;;;;24.70;10.81;99878.66;5055675;28;20025;-75
2021/12/29 10:32:49;;;;;;;8.27;3.95;;;;;;;24.75;11.10;99880.53;5054731;28;20045;-75
2021/12/29 10:35:22;;;;;;;5.20;3.28;;;;;;;24.78;11.32;99879.91;5053001;28;20048;-75
2021/12/29 10:37:48;;;;;;;8.45;4.45;;;;;;;24.77;11.04;99870.09;5054173;28;20029;-75
2021/12/29 10:40:29;;;;;;;8.52;3.92;;;;;;;24.82;10.81;99878.22;5054988;28;20143;-75
2021/12/29 10:42:57;;;;;;;6.65;3.78;;;;;;;24.78;11.26;99879.91;5054827;28;20075;-75
2021/12/29 10:45:37;;;;;;;5.70;3.40;;;;;;;24.79;11.30;99881.56;5055787;28;20131;-74
2021/12/29 10:48:15;;;;;;;4.70;3.03;;;;;;;24.77;10.98;99882.94;5052680;28;20130;-74
2021/12/29 10:50:40;;;;;;;18.45;9.15;;;;;;;24.80;11.03;99871.44;5053978;28;20124;-75
2021/12/29 10:53:07;;;;;;;93.30;39.20;;;;;;;24.80;10.95;99875.00;5052743;28;20494;-74
2021/12/29 10:55:35;;;;;;;15.35;7.63;;;;;;;24.80;11.10;99879.63;5052975;28;20104;-75
2021/12/29 10:58:15;;;;;;;8.18;3.80;;;;;;;24.85;11.35;99880.38;5051891;28;20044;-74
2021/12/29 11:00:43;;;;;;;8.20;4.20;;;;;;;24.83;11.12;99882.56;5053261;28;20072;-73
2021/12/29 11:03:13;;;;;;;7.47;4.20;;;;;;;24.84;11.53;99884.22;5056271;28;20470;-73
2021/12/29 11:05:41;;;;;;;6.85;3.22;;;;;;;24.80;11.42;99880.47;5075419;28;20028;-73
2021/12/29 11:08:08;;;;;;;5.43;3.53;;;;;;;24.85;11.59;99880.38;5076185;28;20036;-75
2021/12/29 11:10:33;;;;;;;5.10;3.22;;;;;;;24.89;11.32;99884.13;5076297;28;20086;-74
2021/12/29 11:12:59;;;;;;;128.38;46.45;;;;;;;24.86;11.18;99882.00;5075997;28;20347;-74
2021/12/29 11:15:26;;;;;;;54.92;21.90;;;;;;;24.87;11.05;99883.63;5075578;28;20048;-75
2021/12/29 11:17:52;;;;;;;14.88;7.22;;;;;;;24.90;11.05;99890.41;5075648;28;20466;-73
2021/12/29 11:20:19;;;;;;;11.10;5.72;;;;;;;24.87;11.06;99889.09;5076161;28;20029;-74
2021/12/29 11:22:44;;;;;;;8.90;4.38;;;;;;;24.91;10.94;99884.66;5075869;28;20021;-74
2021/12/29 11:25:10;;;;;;;7.13;3.80;;;;;;;24.95;11.15;99893.06;5075906;28;20062;-74
2021/12/29 11:27:35;;;;;;;6.90;3.80;;;;;;;24.92;10.95;99885.44;5074463;28;20424;-74
2021/12/29 11:30:09;;;;;;;6.18;3.13;;;;;;;24.94;11.06;99883.25;5076186;28;20093;-74
2021/12/29 11:32:36;;;;;;;5.10;2.90;;;;;;;24.97;10.89;99890.03;5075296;28;20044;-74
2021/12/29 11:35:07;;;;;;;6.38;3.42;;;;;;;25.01;11.12;99889.16;5075922;28;20029;-73
2021/12/29 11:37:32;;;;;;;5.45;3.13;;;;;;;25.01;10.96;99893.78;5076271;28;20032;-73
2021/12/29 11:39:58;;;;;;;4.22;3.05;;;;;;;24.98;11.16;99887.03;5075724;28;20025;-75
2021/12/29 11:42:23;;;;;;;4.22;2.90;;;;;;;24.99;10.94;99890.56;5075275;28;20025;-74
2021/12/29 11:44:49;;;;;;;4.85;3.50;;;;;;;25.01;11.26;99891.06;5076027;28;20090;-74
2021/12/29 11:47:14;;;;;;;3.78;2.90;;;;;;;25.05;10.93;99900.31;5074982;28;20021;-74
2021/12/29 11:49:40;;;;;;;5.55;3.40;;;;;;;25.05;10.94;99895.66;5075791;28;20471;-73
2021/12/29 11:52:10;;;;;;;6.55;3.30;;;;;;;25.05;10.97;99898.38;5076002;28;20024;-74
2021/12/29 11:55:18;;;;;;;5.32;3.25;;;;;;;25.11;11.29;99896.38;5074052;28;20024;-73
2021/12/29 11:57:44;;;;;;;3.95;2.75;;;;;;;25.10;10.85;99892.03;5075483;28;20040;-73
2021/12/29 12:00:18;;;;;;;6.55;3.38;;;;;;;25.08;10.70;99894.25;5073628;28;20017;-73
2021/12/29 12:02:49;;;;;;;4.80;3.13;;;;;;;24.98;10.65;99889.75;5075166;28;20049;-74
2021/12/29 12:05:16;;;;;;;4.55;3.10;;;;;;;24.97;10.82;99884.56;5061268;28;20032;-73
2021/12/29 12:07:42;;;;;;;8.23;3.20;;;;;;;25.04;11.00;99888.56;5055851;28;20021;-73
2021/12/29 12:10:11;;;;;;;4.63;2.88;;;;;;;25.06;10.92;99888.25;5055137;28;20029;-73
2021/12/29 12:12:42;;;;;;;5.85;3.35;;;;;;;25.05;10.63;99883.91;5055030;28;20033;-74
2021/12/29 12:15:10;;;;;;;5.22;3.17;;;;;;;25.09;10.65;99890.41;5057142;28;20053;-74
2021/12/29 12:17:36;;;;;;;6.60;3.60;;;;;;;25.11;10.86;99891.75;5056778;28;20098;-73
2021/12/29 12:20:09;;;;;;;4.63;3.10;;;;;;;25.10;10.60;99892.03;5054493;28;20025;-73
2021/12/29 12:22:51;;;;;;;4.75;3.05;;;;;;;25.08;10.73;99894.25;5062054;28;20056;-73
2021/12/29 12:25:33;;;;;;;8.07;4.07;;;;;;;25.02;10.98;99896.25;5062535;28;20489;-74
2021/12/29 12:28:03;;;;;;;17.38;7.53;;;;;;;25.07;10.79;99898.09;5059830;28;20017;-73
2021/12/29 12:30:40;;;;;;;12.13;5.40;;;;;;;25.10;11.03;99894.78;5073426;28;20039;-74
2021/12/29 12:33:10;;;;;;;7.70;3.58;;;;;;;25.04;10.86;99898.69;5071318;28;20063;-73
2021/12/29 12:35:37;;;;;;;5.30;3.05;;;;;;;25.01;10.90;99904.72;5067954;28;20033;-73
2021/12/29 12:38:22;;;;;;;5.03;3.08;;;;;;;25.03;10.91;99897.06;5068334;28;20024;-73
2021/12/29 12:41:10;;;;;;;11.38;5.70;;;;;;;25.05;10.99;99894.84;5061101;28;20079;-73
2021/12/29 12:43:47;;;;;;;5.57;3.20;;;;;;;24.99;10.93;99891.38;5054552;28;20044;-74
2021/12/29 12:46:13;;;;;;;5.93;2.70;;;;;;;25.02;10.84;99890.78;5054617;28;20134;-74
2021/12/29 12:48:38;;;;;;;4.50;2.80;;;;;;;24.97;10.98;99887.31;5053420;28;20533;-74
2021/12/29 12:51:15;;;;;;;4.63;2.55;;;;;;;25.03;11.01;99897.06;5036680;28;20033;-73
2021/12/29 12:53:41;;;;;;;5.10;2.83;;;;;;;24.97;11.03;99899.03;5054965;28;20025;-73
2021/12/29 12:56:10;;;;;;;3.58;2.42;;;;;;;24.99;10.74;99896.03;5054582;28;20028;-74
2021/12/29 12:58:38;;;;;;;3.80;2.65;;;;;;;24.98;11.01;99895.22;5054262;28;20041;-73
2021/12/29 13:01:14;;;;;;;3.78;2.17;;;;;;;25.00;11.27;99898.47;5054619;28;20033;-74
2021/12/29 13:03:39;;;;;;;3.60;2.28;;;;;;;25.00;11.24;99903.13;5053034;28;20029;-74
2021/12/29 13:06:04;;;;;;;5.18;2.33;;;;;;;25.00;10.91;99908.59;5074011;28;20481;-74
2021/12/29 13:08:41;;;;;;;4.50;2.60;;;;;;;24.99;11.38;99905.06;5074511;28;20075;-74
2021/12/29 13:11:13;;;;;;;4.30;2.80;;;;;;;24.97;11.14;99907.25;5074118;28;20139;-74
2021/12/29 13:13:40;;;;;;;5.53;2.42;;;;;;;24.95;11.14;99909.47;5073054;28;20375;-73
2021/12/29 13:16:13;;;;;;;4.43;2.65;;;;;;;24.94;11.18;99910.59;5072465;28;20087;-73
2021/12/29 13:18:39;;;;;;;6.10;2.37;;;;;;;24.93;10.78;99904.28;5074336;28;20069;-73
2021/12/29 13:21:15;;;;;;;3.75;2.33;;;;;;;24.92;11.06;99896.38;5074327;28;20032;-73
2021/12/29 13:23:41;;;;;;;4.35;2.15;;;;;;;24.93;10.85;99908.97;5073395;28;20039;-73
2021/12/29 13:26:06;;;;;;;2.72;1.95;;;;;;;24.97;11.07;99907.25;5073704;28;20028;-73
2021/12/29 13:28:33;;;;;;;4.13;2.55;;;;;;;24.93;10.92;99909.75;5074098;28;20356;-74
2021/12/29 13:31:08;;;;;;;4.28;2.58;;;;;;;24.96;10.82;99908.38;5073857;28;20024;-73
2021/12/29 13:33:36;;;;;;;4.35;2.60;;;;;;;24.91;11.08;99913.91;5073770;28;20028;-73
2021/12/29 13:36:02;;;;;;;5.70;3.25;;;;;;;24.81;10.99;99912.13;5073768;28;20112;-71
2021/12/29 13:38:31;;;;;;;4.45;2.72;;;;;;;24.96;11.20;99913.00;5074185;28;20024;-72
2021/12/29 13:40:59;;;;;;;3.78;2.47;;;;;;;24.90;10.99;99910.34;5073397;28;20471;-75
2021/12/29 13:43:26;;;;;;;5.30;2.65;;;;;;;24.93;11.12;99909.75;5072526;28;20123;-74
2021/12/29 13:45:54;;;;;;;6.18;2.90;;;;;;;24.89;11.12;99911.47;5073662;28;20031;-73
2021/12/29 13:48:21;;;;;;;3.53;2.65;;;;;;;24.87;11.25;99905.50;5073890;28;20032;-76
2021/12/29 13:51:06;;;;;;;3.83;2.40;;;;;;;24.99;11.11;99915.16;5073888;28;20070;-76
2021/12/29 13:53:35;;;;;;;5.22;2.72;;;;;;;24.99;11.14;99917.88;5074614;28;20390;-75
2021/12/29 13:56:06;;;;;;;3.78;2.50;;;;;;;25.00;10.88;99919.53;5072337;28;20025;-74
2021/12/29 13:58:31;;;;;;;3.95;2.30;;;;;;;25.00;10.96;99925.00;5073664;28;20048;-74
2021/12/29 14:00:57;;;;;;;3.22;2.22;;;;;;;25.02;10.62;99922.78;5073538;28;20028;-73
2021/12/29 14:03:22;;;;;;;4.65;2.67;;;;;;;25.00;11.00;99919.53;5073520;28;20021;-75
2021/12/29 14:05:48;;;;;;;3.53;1.85;;;;;;;25.00;10.82;99919.53;5057410;28;20075;-75
2021/12/29 14:08:18;;;;;;;4.45;2.72;;;;;;;24.98;10.40;99914.34;5053114;28;20028;-74
2021/12/29 14:10:44;;;;;;;3.28;2.17;;;;;;;24.97;10.94;99926.38;5053409;28;20021;-75
2021/12/29 14:13:15;;;;;;;3.45;1.85;;;;;;;24.93;10.89;99923.44;5052055;28;20104;-75
2021/12/29 14:15:41;;;;;;;3.75;2.15;;;;;;;24.93;10.93;99931.63;5051547;28;20147;-75
2021/12/29 14:18:21;;;;;;;2.42;1.65;;;;;;;24.98;10.79;99929.94;5053448;28;20025;-75
2021/12/29 14:20:54;;;;;;;3.58;1.90;;;;;;;24.87;10.67;99924.63;5053127;28;20460;-75
2021/12/29 14:23:28;;;;;;;5.38;2.50;;;;;;;24.89;10.98;99927.06;5051830;28;20029;-75
2021/12/29 14:25:53;;;;;;;;;;;;;;;25.09;10.67;99929.50;5054041;28;20029;-74
2021/12/29 14:28:20;;;;;;;4.30;2.10;;;;;;;24.90;10.75;99929.47;5053249;28;19917;-75
2021/12/29 14:31:09;;;;;;;2.90;2.00;;;;;;;24.90;10.92;99926.75;5052006;28;20033;-75
2021/12/29 14:33:40;;;;;;;4.05;2.03;;;;;;;24.82;10.44;99921.97;5052268;28;20104;-75
2021/12/29 14:36:06;;;;;;;3.47;1.88;;;;;;;24.77;10.58;99926.66;5052338;28;20028;-75
2021/12/29 14:38:33;;;;;;;1.90;1.70;;;;;;;24.75;10.59;99932.44;5056109;28;20039;-76
2021/12/29 14:40:58;;;;;;;3.63;1.88;;;;;;;24.73;10.61;99931.91;5056106;28;20032;-75
2021/12/29 14:43:26;;;;;;;2.22;1.83;;;;;;;24.70;10.63;99932.50;5057207;28;20037;-76
2021/12/29 14:45:58;;;;;;;2.58;1.65;;;;;;;24.70;10.66;99937.97;5057128;28;20033;-76
2021/12/29 14:48:23;;;;;;;2.85;1.90;;;;;;;24.71;10.68;99939.59;5057127;28;20107;-75
2021/12/29 14:50:50;;;;;;;1.60;1.20;;;;;;;24.68;10.57;99938.25;5056634;28;20031;-75
2021/12/29 14:53:20;;;;;;;2.03;1.67;;;;;;;24.65;10.58;99938.84;5055917;28;20460;-75
2021/12/29 14:55:46;;;;;;;2.22;1.80;;;;;;;24.66;10.31;99937.72;5057662;28;20025;-75
2021/12/29 14:58:22;;;;;;;2.15;1.70;;;;;;;24.66;10.39;99934.19;5056989;28;20503;-76
2021/12/29 15:00:48;;;;;;;1.95;1.73;;;;;;;24.63;10.41;99942.97;5056978;28;20029;-75
2021/12/29 15:03:15;;;;;;;1.63;1.50;;;;;;;24.62;10.61;99938.63;5056568;28;20522;-76
2021/12/29 15:05:47;;;;;;;1.65;1.50;;;;;;;24.61;10.51;99940.53;5069777;28;20059;-75
2021/12/29 15:08:20;;;;;;;2.33;1.70;;;;;;;24.61;10.42;99939.72;5075158;28;20421;-76
2021/12/29 15:10:52;;;;;;;1.70;1.60;;;;;;;24.62;10.60;99941.34;5076658;28;20032;-75
2021/12/29 15:13:19;;;;;;;1.60;1.50;;;;;;;24.60;10.38;99944.38;5076651;28;20086;-76
2021/12/29 15:15:45;;;;;;;2.05;1.67;;;;;;;24.59;10.57;99936.47;5075977;28;20491;-76
2021/12/29 15:18:12;;;;;;;1.70;1.60;;;;;;;24.53;10.68;99938.41;5076517;28;20031;-76
2021/12/29 15:20:43;;;;;;;2.47;1.50;;;;;;;24.51;10.81;99940.63;5076319;28;20024;-77
2021/12/29 15:23:10;;;;;;;2.50;1.70;;;;;;;24.47;10.60;99945.84;5076639;28;20093;-77
2021/12/29 15:25:36;;;;;;;2.45;1.65;;;;;;;24.45;10.46;99952.72;5075748;28;20025;-76
2021/12/29 15:28:03;;;;;;;2.10;1.60;;;;;;;24.39;10.74;99941.03;5076421;28;20477;-76
2021/12/29 15:30:29;;;;;;;1.73;1.40;;;;;;;24.35;10.74;99945.44;5076398;28;20021;-76
2021/12/29 15:32:55;;;;;;;1.65;1.38;;;;;;;24.31;10.44;99942.47;5075954;28;20534;-76
2021/12/29 15:35:21;;;;;;;1.98;1.50;;;;;;;24.30;10.56;99950.97;5076138;28;20033;-76
2021/12/29 15:37:46;;;;;;;1.80;1.42;;;;;;;24.27;10.82;99952.38;5076447;28;20039;-76
2021/12/29 15:40:12;;;;;;;1.70;1.40;;;;;;;24.25;10.69;99943.66;5076550;28;20512;-75
2021/12/29 15:42:38;;;;;;;2.28;1.70;;;;;;;24.22;10.66;99946.16;5076043;28;20039;-75
2021/12/29 15:45:05;;;;;;;1.80;1.55;;;;;;;24.19;10.83;99953.00;5074969;28;20016;-76
2021/12/29 15:47:30;;;;;;;1.95;1.50;;;;;;;24.15;10.90;99955.50;5075459;28;20055;-76
2021/12/29 15:49:56;;;;;;;2.10;1.50;;;;;;;24.14;10.91;99959.31;5074478;28;20113;-76
2021/12/29 15:52:21;;;;;;;1.50;1.35;;;;;;;24.13;10.95;99959.63;5076904;28;20134;-78
2021/12/29 15:54:46;;;;;;;1.50;1.40;;;;;;;24.10;10.79;99952.00;5075522;28;20051;-78
2021/12/29 15:57:12;;;;;;;1.50;1.40;;;;;;;24.08;10.79;99957.75;5076330;28;20020;-77
2021/12/29 15:59:37;;;;;;;2.53;1.40;;;;;;;24.06;10.87;99965.41;5075604;28;20051;-76
2021/12/29 16:02:05;;;;;;;1.48;1.38;;;;;;;24.03;10.92;99963.25;5074556;28;20040;-76
2021/12/29 16:04:34;;;;;;;1.58;1.48;;;;;;;24.03;10.93;99963.25;5073473;28;20459;-76
2021/12/29 16:06:59;;;;;;;1.83;1.52;;;;;;;24.00;11.00;99958.38;5038522;28;20052;-76
2021/12/29 16:09:24;;;;;;;1.75;1.30;;;;;;;23.97;11.02;99958.94;5055678;28;20091;-76
2021/12/29 16:11:50;;;;;;;2.38;1.60;;;;;;;23.95;10.82;99955.69;5055790;28;20033;-76
2021/12/29 16:14:16;;;;;;;2.13;1.60;;;;;;;23.92;11.02;99950.78;5055185;28;20533;-77
2021/12/29 16:16:42;;;;;;;2.35;1.80;;;;;;;23.94;10.91;99954.03;5054543;28;20051;-77
2021/12/29 16:19:08;;;;;;;2.50;1.70;;;;;;;23.91;11.07;99949.19;5054707;28;20037;-77
2021/12/29 16:21:34;;;;;;;2.40;1.90;;;;;;;23.86;11.12;99951.97;5056783;28;20028;-76
2021/12/29 16:24:00;;;;;;;1.73;1.63;;;;;;;23.86;11.17;99946.50;5056861;28;20033;-76
2021/12/29 16:26:25;;;;;;;3.65;1.70;;;;;;;23.87;11.12;99948.13;5057156;28;20021;-76
2021/12/29 16:28:52;;;;;;;2.38;1.80;;;;;;;23.84;10.94;99944.06;5058261;28;20029;-77
2021/12/29 16:31:18;;;;;;;2.92;1.60;;;;;;;23.83;10.91;99936.16;5057878;28;20021;-76
2021/12/29 16:33:43;;;;;;;2.90;1.83;;;;;;;23.82;11.19;99940.81;5057620;28;20430;-76
2021/12/29 16:36:09;;;;;;;2.80;1.65;;;;;;;23.80;10.95;99938.34;5057548;28;20033;-76
2021/12/29 16:38:34;;;;;;;2.00;1.70;;;;;;;23.77;11.17;99938.91;5057183;28;20463;-77
2021/12/29 16:41:02;;;;;;;4.50;1.77;;;;;;;23.77;11.16;99940.81;5055343;28;20043;-76
2021/12/29 16:43:29;;;;;;;2.78;1.75;;;;;;;23.78;11.03;99935.09;5054123;28;20045;-76
2021/12/29 16:45:54;;;;;;;2.90;1.63;;;;;;;23.75;11.21;99938.38;5055331;28;20051;-76
2021/12/29 16:48:19;;;;;;;2.45;1.70;;;;;;;23.72;11.10;99936.22;5055757;28;20021;-76
2021/12/29 16:50:47;;;;;;;2.17;1.50;;;;;;;23.71;11.26;99937.31;5055299;28;20391;-77
2021/12/29 16:53:13;;;;;;;2.33;1.60;;;;;;;23.71;11.22;99933.78;5055380;28;20029;-77
2021/12/29 16:55:39;;;;;;;2.17;1.70;;;;;;;23.70;11.34;99932.97;5056131;28;20103;-76
2021/12/29 16:58:05;;;;;;;2.42;1.95;;;;;;;23.71;11.09;99931.84;5055233;28;20025;-77
2021/12/29 17:00:31;;;;;;;2.25;1.60;;;;;;;23.73;11.32;99932.41;5054781;28;20063;-76
2021/12/29 17:02:56;;;;;;;2.63;1.90;;;;;;;23.70;11.25;99922.06;5055356;28;20454;-76
2021/12/29 17:05:22;;;;;;;1.60;1.40;;;;;;;23.67;11.06;99928.09;5063026;28;20024;-76
2021/12/29 17:07:47;;;;;;;2.72;1.67;;;;;;;23.67;11.28;99928.09;5075171;28;20463;-76
2021/12/29 17:10:13;;;;;;;1.90;1.50;;;;;;;23.67;11.16;99933.53;5073387;28;20028;-76
2021/12/29 17:12:39;;;;;;;2.33;1.50;;;;;;;23.64;11.38;99934.09;5075240;28;20023;-76
2021/12/29 17:15:04;;;;;;;2.35;1.70;;;;;;;23.63;11.26;99933.28;5056937;28;20431;-77
2021/12/29 17:17:30;;;;;;;2.05;1.73;;;;;;;23.62;11.43;99930.84;5074795;28;20378;-76
2021/12/29 17:19:59;;;;;;;2.58;1.95;;;;;;;23.61;11.23;99937.41;5075034;28;20387;-76
2021/12/29 17:22:25;;;;;;;3.05;1.63;;;;;;;23.61;11.31;99934.66;5075446;28;20024;-76
2021/12/29 17:24:53;;;;;;;2.17;1.70;;;;;;;23.58;11.34;99927.88;5075013;28;20344;-76
2021/12/29 17:27:21;;;;;;;3.75;1.75;;;;;;;23.58;11.17;99929.81;5076442;28;20020;-76
2021/12/29 17:29:47;;;;;;;1.75;1.50;;;;;;;23.60;11.36;99933.06;5076598;28;20024;-77
2021/12/29 17:32:12;;;;;;;2.83;1.75;;;;;;;23.57;11.46;99939.88;5074174;28;20025;-76
2021/12/29 17:34:37;;;;;;;2.60;1.70;;;;;;;23.56;11.44;99927.34;5073764;28;20017;-76
2021/12/29 17:37:03;;;;;;;2.47;1.70;;;;;;;23.54;11.48;99928.72;5073735;28;20033;-76
2021/12/29 17:39:28;;;;;;;2.20;1.60;;;;;;;23.55;11.39;99927.66;5074485;28;20024;-76
2021/12/29 17:41:54;;;;;;;2.33;1.60;;;;;;;23.53;11.26;99927.91;5073699;28;20394;-77